sensor_id;sensor_type;location;lat;lon;timestamp;temperature;humidity
54178;DHT22;40085;53.004;6.770;2023-02-12T00:00:00;6.70;99.90
54178;DHT22;40085;53.004;6.770;2023-02-12T00:02:26;6.70;99.90
54178;DHT22;40085;53.004;6.770;2023-02-12T00:04:51;7.20;99.90
54178;DHT22;40085;53.004;6.770;2023-02-12T00:07:17;6.70;99.90
54178;DHT22;40085;53.004;6.770;2023-02-12T00:09:43;6.60;99.90
54178;DHT22;40085;53.004;6.770;2023-02-12T00:12:08;6.60;99.90
54178;DHT22;40085;53.004;6.770;2023-02-12T00:14:36;6.70;99.90
54178;DHT22;40085;53.004;6.770;2023-02-12T00:17:02;6.60;99.90
54178;DHT22;40085;53.004;6.770;2023-02-12T00:19:28;6.60;99.90
54178;DHT22;40085;53.004;6.770;2023-02-12T00:21:54;6.60;99.90
54178;DHT22;40085;53.004;6.770;2023-02-12T00:24:19;6.60;99.90
54178;DHT22;40085;53.004;6.770;2023-02-12T00:26:45;6.60;99.90
54178;DHT22;40085;53.004;6.770;2023-02-12T00:29:13;6.60;99.90
54178;DHT22;40085;53.004;6.770;2023-02-12T00:31:38;6.60;99.90
54178;DHT22;40085;53.004;6.770;2023-02-12T00:34:04;6.70;99.90
54178;DHT22;40085;53.004;6.770;2023-02-12T00:36:31;6.50;99.90
54178;DHT22;40085;53.004;6.770;2023-02-12T00:38:57;6.50;99.90
54178;DHT22;40085;53.004;6.770;2023-02-12T00:41:23;7.00;99.90
54178;DHT22;40085;53.004;6.770;2023-02-12T00:43:50;6.40;99.90
54178;DHT22;40085;53.004;6.770;2023-02-12T00:46:15;6.40;99.90
54178;DHT22;40085;53.004;6.770;2023-02-12T00:48:41;6.40;99.90
54178;DHT22;40085;53.004;6.770;2023-02-12T00:51:07;6.30;99.90
54178;DHT22;40085;53.004;6.770;2023-02-12T00:53:33;6.40;99.90
54178;DHT22;40085;53.004;6.770;2023-02-12T00:55:59;6.30;99.90
54178;DHT22;40085;53.004;6.770;2023-02-12T00:58:26;6.20;99.90
54178;DHT22;40085;53.004;6.770;2023-02-12T01:00:52;6.30;99.90
54178;DHT22;40085;53.004;6.770;2023-02-12T01:03:19;6.20;99.90
54178;DHT22;40085;53.004;6.770;2023-02-12T01:05:44;7.30;99.90
54178;DHT22;40085;53.004;6.770;2023-02-12T01:08:12;6.10;99.90
54178;DHT22;40085;53.004;6.770;2023-02-12T01:10:38;6.20;99.90
54178;DHT22;40085;53.004;6.770;2023-02-12T01:13:04;6.10;99.90
54178;DHT22;40085;53.004;6.770;2023-02-12T01:15:29;6.30;99.90
54178;DHT22;40085;53.004;6.770;2023-02-12T01:17:55;6.20;99.90
54178;DHT22;40085;53.004;6.770;2023-02-12T01:20:23;6.30;99.90
54178;DHT22;40085;53.004;6.770;2023-02-12T01:35:01;6.40;99.90
54178;DHT22;40085;53.004;6.770;2023-02-12T01:37:26;6.30;99.90
54178;DHT22;40085;53.004;6.770;2023-02-12T01:39:52;6.20;99.90
54178;DHT22;40085;53.004;6.770;2023-02-12T01:42:18;6.20;99.90
54178;DHT22;40085;53.004;6.770;2023-02-12T01:47:30;6.20;99.90
54178;DHT22;40085;53.004;6.770;2023-02-12T01:49:55;6.30;99.90
54178;DHT22;40085;53.004;6.770;2023-02-12T01:52:27;6.30;99.90
54178;DHT22;40085;53.004;6.770;2023-02-12T01:54:57;6.30;99.90
54178;DHT22;40085;53.004;6.770;2023-02-12T01:57:23;6.40;99.90
54178;DHT22;40085;53.004;6.770;2023-02-12T01:59:53;6.60;99.90
54178;DHT22;40085;53.004;6.770;2023-02-12T02:02:21;6.30;99.90
54178;DHT22;40085;53.004;6.770;2023-02-12T02:04:50;6.40;99.90
54178;DHT22;40085;53.004;6.770;2023-02-12T02:07:17;6.70;99.90
54178;DHT22;40085;53.004;6.770;2023-02-12T02:09:43;6.70;99.90
54178;DHT22;40085;53.004;6.770;2023-02-12T02:12:09;6.40;99.90
54178;DHT22;40085;53.004;6.770;2023-02-12T02:14:55;6.40;99.90
54178;DHT22;40085;53.004;6.770;2023-02-12T02:26:21;6.60;99.90
54178;DHT22;40085;53.004;6.770;2023-02-12T02:34:23;6.50;99.90
54178;DHT22;40085;53.004;6.770;2023-02-12T02:37:07;6.40;99.90
54178;DHT22;40085;53.004;6.770;2023-02-12T02:42:32;6.30;99.90
54178;DHT22;40085;53.004;6.770;2023-02-12T02:45:19;6.40;99.90
54178;DHT22;40085;53.004;6.770;2023-02-12T02:48:13;6.30;99.90
54178;DHT22;40085;53.004;6.770;2023-02-12T02:50:42;6.30;99.90
54178;DHT22;40085;53.004;6.770;2023-02-12T02:53:17;6.40;99.90
54178;DHT22;40085;53.004;6.770;2023-02-12T02:55:51;6.90;99.90
54178;DHT22;40085;53.004;6.770;2023-02-12T02:58:35;6.30;99.90
54178;DHT22;40085;53.004;6.770;2023-02-12T03:01:06;6.30;99.90
54178;DHT22;40085;53.004;6.770;2023-02-12T03:03:54;6.70;99.90
54178;DHT22;40085;53.004;6.770;2023-02-12T03:06:32;6.20;99.90
54178;DHT22;40085;53.004;6.770;2023-02-12T03:09:04;7.00;99.90
54178;DHT22;40085;53.004;6.770;2023-02-12T03:11:33;6.10;99.90
54178;DHT22;40085;53.004;6.770;2023-02-12T03:14:11;6.10;99.90
54178;DHT22;40085;53.004;6.770;2023-02-12T03:16:58;6.00;99.90
54178;DHT22;40085;53.004;6.770;2023-02-12T03:19:30;6.10;99.90
54178;DHT22;40085;53.004;6.770;2023-02-12T03:22:05;6.10;99.90
54178;DHT22;40085;53.004;6.770;2023-02-12T03:24:33;6.30;99.90
54178;DHT22;40085;53.004;6.770;2023-02-12T03:29:44;6.20;99.90
54178;DHT22;40085;53.004;6.770;2023-02-12T03:35:01;6.20;99.90
54178;DHT22;40085;53.004;6.770;2023-02-12T03:37:54;6.20;99.90
54178;DHT22;40085;53.004;6.770;2023-02-12T03:40:44;6.20;99.90
54178;DHT22;40085;53.004;6.770;2023-02-12T03:44:09;6.20;99.90
54178;DHT22;40085;53.004;6.770;2023-02-12T03:51:36;6.50;99.90
54178;DHT22;40085;53.004;6.770;2023-02-12T03:54:03;6.20;99.90
54178;DHT22;40085;53.004;6.770;2023-02-12T03:59:17;6.10;99.90
54178;DHT22;40085;53.004;6.770;2023-02-12T04:01:43;5.80;99.90
54178;DHT22;40085;53.004;6.770;2023-02-12T04:04:11;6.20;99.90
54178;DHT22;40085;53.004;6.770;2023-02-12T04:06:37;6.10;99.90
54178;DHT22;40085;53.004;6.770;2023-02-12T04:09:08;6.30;99.90
54178;DHT22;40085;53.004;6.770;2023-02-12T04:14:28;6.10;99.90
54178;DHT22;40085;53.004;6.770;2023-02-12T04:17:08;6.20;99.90
54178;DHT22;40085;53.004;6.770;2023-02-12T04:28:04;6.10;99.90
54178;DHT22;40085;53.004;6.770;2023-02-12T04:30:40;6.10;99.90
54178;DHT22;40085;53.004;6.770;2023-02-12T04:33:10;6.10;99.90
54178;DHT22;40085;53.004;6.770;2023-02-12T04:38:22;6.10;99.90
54178;DHT22;40085;53.004;6.770;2023-02-12T04:40:49;5.90;99.90
54178;DHT22;40085;53.004;6.770;2023-02-12T04:43:30;6.20;99.90
54178;DHT22;40085;53.004;6.770;2023-02-12T04:45:55;6.00;99.90
54178;DHT22;40085;53.004;6.770;2023-02-12T04:48:21;6.10;99.90
54178;DHT22;40085;53.004;6.770;2023-02-12T04:50:47;5.90;99.90
54178;DHT22;40085;53.004;6.770;2023-02-12T04:53:12;6.10;99.90
54178;DHT22;40085;53.004;6.770;2023-02-12T04:55:38;6.00;99.90
54178;DHT22;40085;53.004;6.770;2023-02-12T04:58:04;6.10;99.90
54178;DHT22;40085;53.004;6.770;2023-02-12T05:00:30;6.30;99.90
54178;DHT22;40085;53.004;6.770;2023-02-12T05:02:56;6.00;99.90
54178;DHT22;40085;53.004;6.770;2023-02-12T05:05:21;6.00;99.90
54178;DHT22;40085;53.004;6.770;2023-02-12T05:07:47;5.90;99.90
54178;DHT22;40085;53.004;6.770;2023-02-12T05:10:13;5.90;99.90
54178;DHT22;40085;53.004;6.770;2023-02-12T05:12:38;6.10;99.90
54178;DHT22;40085;53.004;6.770;2023-02-12T05:15:04;5.90;99.90
54178;DHT22;40085;53.004;6.770;2023-02-12T05:17:29;5.90;99.90
54178;DHT22;40085;53.004;6.770;2023-02-12T05:19:55;6.00;99.90
54178;DHT22;40085;53.004;6.770;2023-02-12T05:22:21;6.00;99.90
54178;DHT22;40085;53.004;6.770;2023-02-12T05:24:46;6.00;99.90
54178;DHT22;40085;53.004;6.770;2023-02-12T05:27:12;5.90;99.90
54178;DHT22;40085;53.004;6.770;2023-02-12T05:29:37;5.70;99.90
54178;DHT22;40085;53.004;6.770;2023-02-12T05:32:03;5.80;99.90
54178;DHT22;40085;53.004;6.770;2023-02-12T05:34:31;5.80;99.90
54178;DHT22;40085;53.004;6.770;2023-02-12T05:36:56;5.80;99.90
54178;DHT22;40085;53.004;6.770;2023-02-12T05:39:22;5.90;99.90
54178;DHT22;40085;53.004;6.770;2023-02-12T05:41:48;5.80;99.90
54178;DHT22;40085;53.004;6.770;2023-02-12T05:44:13;5.80;99.90
54178;DHT22;40085;53.004;6.770;2023-02-12T05:46:43;5.80;99.90
54178;DHT22;40085;53.004;6.770;2023-02-12T05:49:09;5.80;99.90
54178;DHT22;40085;53.004;6.770;2023-02-12T05:51:36;5.50;99.90
54178;DHT22;40085;53.004;6.770;2023-02-12T05:54:04;5.80;99.90
54178;DHT22;40085;53.004;6.770;2023-02-12T05:56:35;6.00;99.90
54178;DHT22;40085;53.004;6.770;2023-02-12T05:59:11;5.70;99.90
54178;DHT22;40085;53.004;6.770;2023-02-12T06:01:40;5.90;99.90
54178;DHT22;40085;53.004;6.770;2023-02-12T06:04:09;5.70;99.90
54178;DHT22;40085;53.004;6.770;2023-02-12T06:06:37;6.40;99.90
54178;DHT22;40085;53.004;6.770;2023-02-12T06:09:07;5.90;99.90
54178;DHT22;40085;53.004;6.770;2023-02-12T06:11:33;5.80;99.90
54178;DHT22;40085;53.004;6.770;2023-02-12T06:14:01;5.70;99.90
54178;DHT22;40085;53.004;6.770;2023-02-12T06:16:27;5.90;99.90
54178;DHT22;40085;53.004;6.770;2023-02-12T06:18:55;5.80;99.90
54178;DHT22;40085;53.004;6.770;2023-02-12T06:21:21;5.80;99.90
54178;DHT22;40085;53.004;6.770;2023-02-12T06:23:48;5.70;99.90
54178;DHT22;40085;53.004;6.770;2023-02-12T06:26:15;5.90;99.90
54178;DHT22;40085;53.004;6.770;2023-02-12T06:28:40;5.80;99.90
54178;DHT22;40085;53.004;6.770;2023-02-12T06:31:18;5.90;99.90
54178;DHT22;40085;53.004;6.770;2023-02-12T06:33:44;5.80;99.90
54178;DHT22;40085;53.004;6.770;2023-02-12T06:36:09;5.70;99.90
54178;DHT22;40085;53.004;6.770;2023-02-12T06:38:35;5.80;99.90
54178;DHT22;40085;53.004;6.770;2023-02-12T06:41:02;5.70;99.90
54178;DHT22;40085;53.004;6.770;2023-02-12T06:43:27;5.60;99.90
54178;DHT22;40085;53.004;6.770;2023-02-12T06:45:53;5.80;99.90
54178;DHT22;40085;53.004;6.770;2023-02-12T06:48:19;5.80;99.90
54178;DHT22;40085;53.004;6.770;2023-02-12T06:50:44;5.90;99.90
54178;DHT22;40085;53.004;6.770;2023-02-12T06:53:10;5.90;99.90
54178;DHT22;40085;53.004;6.770;2023-02-12T06:55:35;5.80;99.90
54178;DHT22;40085;53.004;6.770;2023-02-12T06:58:01;5.70;99.90
54178;DHT22;40085;53.004;6.770;2023-02-12T07:00:27;5.80;99.90
54178;DHT22;40085;53.004;6.770;2023-02-12T07:02:56;5.80;99.90
54178;DHT22;40085;53.004;6.770;2023-02-12T07:05:22;5.80;99.90
54178;DHT22;40085;53.004;6.770;2023-02-12T07:07:48;5.80;99.90
54178;DHT22;40085;53.004;6.770;2023-02-12T07:10:14;5.80;99.90
54178;DHT22;40085;53.004;6.770;2023-02-12T07:12:39;5.80;99.90
54178;DHT22;40085;53.004;6.770;2023-02-12T07:15:05;6.00;99.90
54178;DHT22;40085;53.004;6.770;2023-02-12T07:17:31;5.70;99.90
54178;DHT22;40085;53.004;6.770;2023-02-12T07:19:56;5.90;99.90
54178;DHT22;40085;53.004;6.770;2023-02-12T07:22:22;5.80;99.90
54178;DHT22;40085;53.004;6.770;2023-02-12T07:24:48;6.00;99.90
54178;DHT22;40085;53.004;6.770;2023-02-12T07:27:13;6.20;99.90
54178;DHT22;40085;53.004;6.770;2023-02-12T07:29:39;6.20;99.90
54178;DHT22;40085;53.004;6.770;2023-02-12T07:32:05;6.50;99.90
54178;DHT22;40085;53.004;6.770;2023-02-12T07:34:30;6.00;99.90
54178;DHT22;40085;53.004;6.770;2023-02-12T07:36:56;7.30;99.90
54178;DHT22;40085;53.004;6.770;2023-02-12T07:39:22;6.00;99.90
54178;DHT22;40085;53.004;6.770;2023-02-12T07:41:48;5.80;99.90
54178;DHT22;40085;53.004;6.770;2023-02-12T07:44:13;5.90;99.90
54178;DHT22;40085;53.004;6.770;2023-02-12T07:46:47;5.90;99.90
54178;DHT22;40085;53.004;6.770;2023-02-12T07:49:16;5.90;99.90
54178;DHT22;40085;53.004;6.770;2023-02-12T07:51:42;5.80;99.90
54178;DHT22;40085;53.004;6.770;2023-02-12T07:54:09;6.70;99.90
54178;DHT22;40085;53.004;6.770;2023-02-12T07:56:36;5.90;99.90
54178;DHT22;40085;53.004;6.770;2023-02-12T07:59:06;6.00;99.90
54178;DHT22;40085;53.004;6.770;2023-02-12T08:01:37;6.60;99.90
54178;DHT22;40085;53.004;6.770;2023-02-12T08:04:08;6.10;99.90
54178;DHT22;40085;53.004;6.770;2023-02-12T08:06:35;5.90;99.90
54178;DHT22;40085;53.004;6.770;2023-02-12T08:09:04;6.40;99.90
54178;DHT22;40085;53.004;6.770;2023-02-12T08:11:30;6.00;99.90
54178;DHT22;40085;53.004;6.770;2023-02-12T08:13:57;6.10;99.90
54178;DHT22;40085;53.004;6.770;2023-02-12T08:16:24;6.20;99.90
54178;DHT22;40085;53.004;6.770;2023-02-12T08:18:50;6.10;99.90
54178;DHT22;40085;53.004;6.770;2023-02-12T08:21:22;6.30;99.90
54178;DHT22;40085;53.004;6.770;2023-02-12T08:23:48;6.10;99.90
54178;DHT22;40085;53.004;6.770;2023-02-12T08:26:26;6.20;99.90
54178;DHT22;40085;53.004;6.770;2023-02-12T08:28:58;6.20;99.90
54178;DHT22;40085;53.004;6.770;2023-02-12T08:31:27;6.50;99.90
54178;DHT22;40085;53.004;6.770;2023-02-12T08:33:54;6.30;99.90
54178;DHT22;40085;53.004;6.770;2023-02-12T08:36:22;6.40;99.90
54178;DHT22;40085;53.004;6.770;2023-02-12T08:38:48;6.30;99.90
54178;DHT22;40085;53.004;6.770;2023-02-12T08:41:26;6.50;99.90
54178;DHT22;40085;53.004;6.770;2023-02-12T08:43:53;6.70;99.90
54178;DHT22;40085;53.004;6.770;2023-02-12T08:46:42;6.40;99.90
54178;DHT22;40085;53.004;6.770;2023-02-12T08:49:09;6.80;99.90
54178;DHT22;40085;53.004;6.770;2023-02-12T08:51:38;6.70;99.90
54178;DHT22;40085;53.004;6.770;2023-02-12T08:54:06;6.50;99.90
54178;DHT22;40085;53.004;6.770;2023-02-12T08:56:33;6.60;99.90
54178;DHT22;40085;53.004;6.770;2023-02-12T08:59:01;6.60;99.90
54178;DHT22;40085;53.004;6.770;2023-02-12T09:01:28;6.70;99.90
54178;DHT22;40085;53.004;6.770;2023-02-12T09:08:51;6.70;99.90
54178;DHT22;40085;53.004;6.770;2023-02-12T09:11:22;7.30;99.90
54178;DHT22;40085;53.004;6.770;2023-02-12T09:13:51;6.90;99.90
54178;DHT22;40085;53.004;6.770;2023-02-12T09:16:17;6.90;99.90
54178;DHT22;40085;53.004;6.770;2023-02-12T09:18:43;6.70;99.90
54178;DHT22;40085;53.004;6.770;2023-02-12T09:21:14;6.60;99.90
54178;DHT22;40085;53.004;6.770;2023-02-12T09:23:42;6.90;99.90
54178;DHT22;40085;53.004;6.770;2023-02-12T09:26:10;6.90;99.90
54178;DHT22;40085;53.004;6.770;2023-02-12T09:28:36;7.00;99.90
54178;DHT22;40085;53.004;6.770;2023-02-12T09:31:14;7.00;99.90
54178;DHT22;40085;53.004;6.770;2023-02-12T09:33:40;7.00;99.90
54178;DHT22;40085;53.004;6.770;2023-02-12T09:36:14;7.00;99.90
54178;DHT22;40085;53.004;6.770;2023-02-12T09:38:41;7.10;99.90
54178;DHT22;40085;53.004;6.770;2023-02-12T09:43:41;7.10;99.90
54178;DHT22;40085;53.004;6.770;2023-02-12T09:46:14;7.20;99.90
54178;DHT22;40085;53.004;6.770;2023-02-12T09:48:52;7.30;99.90
54178;DHT22;40085;53.004;6.770;2023-02-12T09:51:19;7.30;99.90
54178;DHT22;40085;53.004;6.770;2023-02-12T09:53:47;7.40;99.90
54178;DHT22;40085;53.004;6.770;2023-02-12T09:56:16;7.40;99.90
54178;DHT22;40085;53.004;6.770;2023-02-12T09:58:53;7.40;99.90
54178;DHT22;40085;53.004;6.770;2023-02-12T10:01:21;7.50;99.90
54178;DHT22;40085;53.004;6.770;2023-02-12T10:03:49;7.60;99.90
54178;DHT22;40085;53.004;6.770;2023-02-12T10:11:59;7.80;99.90
54178;DHT22;40085;53.004;6.770;2023-02-12T10:28:24;8.00;99.90
54178;DHT22;40085;53.004;6.770;2023-02-12T10:30:54;8.00;99.90
54178;DHT22;40085;53.004;6.770;2023-02-12T10:33:41;8.10;99.90
54178;DHT22;40085;53.004;6.770;2023-02-12T10:39:13;8.10;99.90
54178;DHT22;40085;53.004;6.770;2023-02-12T10:41:45;8.20;99.90
54178;DHT22;40085;53.004;6.770;2023-02-12T10:44:13;8.20;99.90
54178;DHT22;40085;53.004;6.770;2023-02-12T10:46:38;8.20;99.90
54178;DHT22;40085;53.004;6.770;2023-02-12T10:49:05;8.20;99.90
54178;DHT22;40085;53.004;6.770;2023-02-12T10:54:43;8.40;99.90
54178;DHT22;40085;53.004;6.770;2023-02-12T10:57:12;8.40;99.90
54178;DHT22;40085;53.004;6.770;2023-02-12T10:59:42;8.50;99.90
54178;DHT22;40085;53.004;6.770;2023-02-12T11:02:37;8.50;99.90
54178;DHT22;40085;53.004;6.770;2023-02-12T11:05:22;8.60;99.90
54178;DHT22;40085;53.004;6.770;2023-02-12T11:07:49;8.70;99.90
54178;DHT22;40085;53.004;6.770;2023-02-12T11:10:20;8.80;99.90
54178;DHT22;40085;53.004;6.770;2023-02-12T11:12:46;8.90;99.90
54178;DHT22;40085;53.004;6.770;2023-02-12T11:15:17;9.00;99.90
54178;DHT22;40085;53.004;6.770;2023-02-12T11:17:58;9.10;99.90
54178;DHT22;40085;53.004;6.770;2023-02-12T11:23:01;9.10;99.90
54178;DHT22;40085;53.004;6.770;2023-02-12T11:25:30;9.10;99.90
54178;DHT22;40085;53.004;6.770;2023-02-12T11:28:09;9.20;99.90
54178;DHT22;40085;53.004;6.770;2023-02-12T11:30:58;9.20;99.90
54178;DHT22;40085;53.004;6.770;2023-02-12T11:33:30;9.40;99.90
54178;DHT22;40085;53.004;6.770;2023-02-12T11:36:04;9.60;99.90
54178;DHT22;40085;53.004;6.770;2023-02-12T11:38:33;9.80;99.90
54178;DHT22;40085;53.004;6.770;2023-02-12T11:41:02;10.20;99.90
54178;DHT22;40085;53.004;6.770;2023-02-12T11:45:57;10.30;99.90
54178;DHT22;40085;53.004;6.770;2023-02-12T11:48:35;10.80;99.90
54178;DHT22;40085;53.004;6.770;2023-02-12T11:51:05;11.10;99.90
54178;DHT22;40085;53.004;6.770;2023-02-12T11:53:40;10.60;99.90
54178;DHT22;40085;53.004;6.770;2023-02-12T11:56:10;10.50;99.90
54178;DHT22;40085;53.004;6.770;2023-02-12T11:58:37;11.00;99.90
54178;DHT22;40085;53.004;6.770;2023-02-12T12:01:04;10.40;99.90
54178;DHT22;40085;53.004;6.770;2023-02-12T12:03:52;10.40;99.90
54178;DHT22;40085;53.004;6.770;2023-02-12T12:09:27;10.40;99.90
54178;DHT22;40085;53.004;6.770;2023-02-12T12:12:12;10.50;99.90
54178;DHT22;40085;53.004;6.770;2023-02-12T12:14:45;10.60;99.90
54178;DHT22;40085;53.004;6.770;2023-02-12T12:17:48;10.50;99.90
54178;DHT22;40085;53.004;6.770;2023-02-12T12:20:48;11.00;99.90
54178;DHT22;40085;53.004;6.770;2023-02-12T12:23:17;11.10;99.90
54178;DHT22;40085;53.004;6.770;2023-02-12T12:25:51;10.70;99.90
54178;DHT22;40085;53.004;6.770;2023-02-12T12:28:47;10.70;99.90
54178;DHT22;40085;53.004;6.770;2023-02-12T12:31:23;10.40;99.90
54178;DHT22;40085;53.004;6.770;2023-02-12T12:33:51;10.30;99.90
54178;DHT22;40085;53.004;6.770;2023-02-12T12:52:43;9.90;99.90
54178;DHT22;40085;53.004;6.770;2023-02-12T13:03:40;9.90;99.90
54178;DHT22;40085;53.004;6.770;2023-02-12T13:16:40;9.80;99.90
54178;DHT22;40085;53.004;6.770;2023-02-12T13:27:17;9.90;99.90
54178;DHT22;40085;53.004;6.770;2023-02-12T13:29:50;10.10;99.90
54178;DHT22;40085;53.004;6.770;2023-02-12T13:32:24;10.30;99.90
54178;DHT22;40085;53.004;6.770;2023-02-12T13:34:53;10.00;99.90
54178;DHT22;40085;53.004;6.770;2023-02-12T13:39:58;9.90;99.90
54178;DHT22;40085;53.004;6.770;2023-02-12T13:42:44;9.90;99.90
54178;DHT22;40085;53.004;6.770;2023-02-12T13:48:26;9.70;99.90
54178;DHT22;40085;53.004;6.770;2023-02-12T13:57:01;9.70;99.90
54178;DHT22;40085;53.004;6.770;2023-02-12T14:01:58;9.80;99.90
54178;DHT22;40085;53.004;6.770;2023-02-12T14:07:09;9.70;99.90
54178;DHT22;40085;53.004;6.770;2023-02-12T14:09:42;10.10;99.90
54178;DHT22;40085;53.004;6.770;2023-02-12T14:12:29;9.70;99.90
54178;DHT22;40085;53.004;6.770;2023-02-12T14:15:19;9.70;99.90
54178;DHT22;40085;53.004;6.770;2023-02-12T14:23:41;10.20;99.90
54178;DHT22;40085;53.004;6.770;2023-02-12T14:26:21;9.50;99.90
54178;DHT22;40085;53.004;6.770;2023-02-12T14:31:32;9.60;99.90
54178;DHT22;40085;53.004;6.770;2023-02-12T14:39:01;9.60;99.90
54178;DHT22;40085;53.004;6.770;2023-02-12T14:41:35;9.90;99.90
54178;DHT22;40085;53.004;6.770;2023-02-12T14:46:51;9.40;99.90
54178;DHT22;40085;53.004;6.770;2023-02-12T14:49:29;9.50;99.90
54178;DHT22;40085;53.004;6.770;2023-02-12T14:54:42;9.40;99.90
54178;DHT22;40085;53.004;6.770;2023-02-12T14:59:44;9.30;99.90
54178;DHT22;40085;53.004;6.770;2023-02-12T15:02:25;9.40;99.90
54178;DHT22;40085;53.004;6.770;2023-02-12T15:04:55;9.30;99.90
54178;DHT22;40085;53.004;6.770;2023-02-12T15:07:41;9.10;99.90
54178;DHT22;40085;53.004;6.770;2023-02-12T15:10:20;9.10;99.90
54178;DHT22;40085;53.004;6.770;2023-02-12T15:15:34;9.50;99.90
54178;DHT22;40085;53.004;6.770;2023-02-12T15:21:31;9.00;99.90
54178;DHT22;40085;53.004;6.770;2023-02-12T15:24:07;9.00;99.90
54178;DHT22;40085;53.004;6.770;2023-02-12T15:26:57;9.00;99.90
54178;DHT22;40085;53.004;6.770;2023-02-12T15:29:35;9.00;99.90
54178;DHT22;40085;53.004;6.770;2023-02-12T15:32:05;9.00;99.90
54178;DHT22;40085;53.004;6.770;2023-02-12T15:34:33;9.00;99.90
54178;DHT22;40085;53.004;6.770;2023-02-12T15:37:03;8.90;99.90
54178;DHT22;40085;53.004;6.770;2023-02-12T15:39:43;8.90;99.90
54178;DHT22;40085;53.004;6.770;2023-02-12T15:42:33;8.90;99.90
54178;DHT22;40085;53.004;6.770;2023-02-12T15:47:39;8.80;99.90
54178;DHT22;40085;53.004;6.770;2023-02-12T15:50:10;8.80;99.90
54178;DHT22;40085;53.004;6.770;2023-02-12T15:52:38;8.80;99.90
54178;DHT22;40085;53.004;6.770;2023-02-12T15:55:05;8.70;99.90
54178;DHT22;40085;53.004;6.770;2023-02-12T15:57:38;8.80;99.90
54178;DHT22;40085;53.004;6.770;2023-02-12T16:00:10;8.70;99.90
54178;DHT22;40085;53.004;6.770;2023-02-12T16:02:50;8.70;99.90
54178;DHT22;40085;53.004;6.770;2023-02-12T16:05:16;8.70;99.90
54178;DHT22;40085;53.004;6.770;2023-02-12T16:07:42;8.70;99.90
54178;DHT22;40085;53.004;6.770;2023-02-12T16:10:14;8.60;99.90
54178;DHT22;40085;53.004;6.770;2023-02-12T16:12:40;8.60;99.90
54178;DHT22;40085;53.004;6.770;2023-02-12T16:15:06;8.40;99.90
54178;DHT22;40085;53.004;6.770;2023-02-12T16:17:47;8.60;99.90
54178;DHT22;40085;53.004;6.770;2023-02-12T16:22:45;8.70;99.90
54178;DHT22;40085;53.004;6.770;2023-02-12T16:25:16;8.50;99.90
54178;DHT22;40085;53.004;6.770;2023-02-12T19:39:22;7.90;99.90
